createdAt,value
2017-10-09T00:00:17.861Z,10.94
2017-10-09T00:01:17.894Z,11.06
2017-10-09T00:02:17.927Z,11.00
2017-10-09T00:03:17.961Z,10.96
2017-10-09T00:04:17.992Z,10.92
2017-10-09T00:05:18.025Z,10.94
2017-10-09T00:06:18.057Z,10.92
2017-10-09T00:07:18.091Z,10.92
2017-10-09T00:08:18.123Z,10.92
2017-10-09T00:09:18.156Z,10.89
2017-10-09T00:10:18.190Z,10.89
2017-10-09T00:11:18.220Z,10.74
2017-10-09T00:12:18.253Z,10.82
2017-10-09T00:13:18.286Z,10.73
2017-10-09T00:14:18.320Z,10.71
2017-10-09T00:15:18.352Z,10.68
2017-10-09T00:16:18.384Z,10.66
2017-10-09T00:17:18.417Z,10.78
2017-10-09T00:18:18.449Z,10.74
2017-10-09T00:19:18.480Z,10.68
2017-10-09T00:20:18.514Z,10.71
2017-10-09T00:21:18.546Z,10.71
2017-10-09T00:22:18.579Z,10.74
2017-10-09T00:23:18.611Z,10.74
2017-10-09T00:24:18.647Z,10.84
2017-10-09T00:25:18.677Z,10.86
2017-10-09T00:26:18.709Z,10.84
2017-10-09T00:27:18.741Z,10.85
2017-10-09T00:28:18.773Z,10.91
2017-10-09T00:29:18.807Z,10.92
2017-10-09T00:30:18.839Z,10.89
2017-10-09T00:31:18.872Z,10.85
2017-10-09T00:32:18.904Z,11.02
2017-10-09T00:33:18.937Z,11.02
2017-10-09T00:34:18.969Z,11.02
2017-10-09T00:35:19.001Z,11.03
2017-10-09T00:36:19.035Z,10.97
2017-10-09T00:37:19.067Z,11.03
2017-10-09T00:38:19.099Z,11.00
2017-10-09T00:39:19.131Z,10.86
2017-10-09T00:40:19.164Z,10.82
2017-10-09T00:41:19.197Z,10.71
2017-10-09T00:42:19.229Z,10.71
2017-10-09T00:43:19.261Z,10.71
2017-10-09T00:44:19.293Z,10.68
2017-10-09T00:45:19.326Z,10.74
2017-10-09T00:46:19.360Z,10.76
2017-10-09T00:47:19.392Z,10.70
2017-10-09T00:48:19.423Z,10.79
2017-10-09T00:49:19.456Z,10.68
2017-10-09T00:50:19.488Z,10.68
2017-10-09T00:51:19.521Z,10.84
2017-10-09T00:52:19.554Z,10.79
2017-10-09T00:53:19.588Z,10.71
2017-10-09T00:54:19.618Z,10.79
2017-10-09T00:55:19.651Z,10.78
2017-10-09T00:56:19.683Z,10.78
2017-10-09T00:57:19.716Z,10.70
2017-10-09T00:58:19.748Z,10.70
2017-10-09T00:59:19.780Z,10.64
2017-10-09T01:00:19.812Z,10.66
2017-10-09T01:01:19.845Z,10.59
2017-10-09T01:02:19.878Z,10.59
2017-10-09T01:03:19.909Z,10.68
2017-10-09T01:04:19.942Z,10.61
2017-10-09T01:05:19.974Z,10.66
2017-10-09T01:06:20.008Z,10.64
2017-10-09T01:07:20.038Z,10.71
2017-10-09T01:08:20.071Z,10.67
2017-10-09T01:09:20.104Z,10.64
2017-10-09T01:10:20.138Z,10.59
2017-10-09T01:11:20.172Z,10.61
2017-10-09T01:12:20.200Z,10.63
2017-10-09T01:13:20.233Z,10.59
2017-10-09T01:14:20.265Z,10.61
2017-10-09T01:15:20.296Z,10.67
2017-10-09T01:16:20.329Z,10.56
2017-10-09T01:17:20.362Z,10.59
2017-10-09T01:18:20.394Z,10.63
2017-10-09T01:19:20.426Z,10.63
2017-10-09T01:20:20.458Z,10.63
2017-10-09T01:21:20.491Z,10.70
2017-10-09T01:22:20.524Z,10.70
2017-10-09T01:23:20.555Z,10.68
2017-10-09T01:24:20.588Z,10.74
2017-10-09T01:25:20.620Z,10.76
2017-10-09T01:26:20.652Z,10.68
2017-10-09T01:27:20.684Z,10.71
2017-10-09T01:28:20.717Z,10.71
2017-10-09T01:29:20.748Z,10.78
2017-10-09T01:30:20.781Z,10.74
2017-10-09T01:31:20.815Z,10.88
2017-10-09T01:32:20.846Z,10.85
2017-10-09T01:33:20.879Z,10.84
2017-10-09T01:34:20.911Z,10.85
2017-10-09T01:35:20.943Z,10.86
2017-10-09T01:36:20.976Z,10.84
2017-10-09T01:37:21.011Z,10.64
2017-10-09T01:38:21.041Z,10.60
2017-10-09T01:39:21.073Z,10.52
2017-10-09T01:40:21.105Z,10.47
2017-10-09T01:41:21.137Z,10.52
2017-10-09T01:42:21.170Z,10.53
2017-10-09T01:43:21.202Z,10.51
2017-10-09T01:44:21.236Z,10.47
2017-10-09T01:45:21.266Z,10.52
2017-10-09T01:46:21.299Z,10.64
2017-10-09T01:47:21.330Z,10.56
2017-10-09T01:48:21.363Z,10.64
2017-10-09T01:49:21.396Z,10.67
2017-10-09T01:50:21.429Z,10.61
2017-10-09T01:51:21.460Z,10.67
2017-10-09T01:52:21.493Z,10.67
2017-10-09T01:53:21.528Z,10.67
2017-10-09T01:54:21.558Z,10.64
2017-10-09T01:55:21.589Z,10.61
2017-10-09T01:56:21.623Z,10.66
2017-10-09T01:57:21.656Z,10.60
2017-10-09T01:58:21.688Z,10.59
2017-10-09T01:59:21.719Z,10.64
2017-10-09T02:00:21.753Z,10.64
2017-10-09T02:01:21.786Z,10.73
2017-10-09T02:02:21.817Z,10.84
2017-10-09T02:03:21.849Z,10.88
2017-10-09T02:04:21.881Z,10.84
2017-10-09T02:05:21.914Z,10.86
2017-10-09T02:06:21.947Z,10.85
2017-10-09T02:07:21.979Z,10.97
2017-10-09T02:08:22.010Z,10.88
2017-10-09T02:09:22.044Z,10.91
2017-10-09T02:10:22.077Z,10.97
2017-10-09T02:11:22.109Z,10.89
2017-10-09T02:12:22.142Z,10.88
2017-10-09T02:13:22.173Z,10.88
2017-10-09T02:14:22.208Z,10.81
2017-10-09T02:15:22.237Z,10.94
2017-10-09T02:16:22.273Z,10.89
2017-10-09T02:17:22.302Z,10.88
2017-10-09T02:18:23.838Z,10.92
2017-10-09T02:19:22.368Z,10.92
2017-10-09T02:20:22.399Z,10.94
2017-10-09T02:21:22.433Z,10.92
2017-10-09T02:22:22.465Z,10.99
2017-10-09T02:23:22.496Z,10.92
2017-10-09T02:24:22.530Z,10.94
2017-10-09T02:25:22.562Z,10.92
2017-10-09T02:26:22.598Z,10.89
2017-10-09T02:27:22.627Z,10.85
2017-10-09T02:28:22.660Z,10.79
2017-10-09T02:29:22.693Z,10.82
2017-10-09T02:30:22.725Z,10.85
2017-10-09T02:31:22.757Z,10.84
2017-10-09T02:32:22.789Z,10.88
2017-10-09T02:33:22.824Z,10.97
2017-10-09T02:34:22.855Z,10.97
2017-10-09T02:35:22.886Z,11.00
2017-10-09T02:36:22.918Z,11.06
2017-10-09T02:37:22.952Z,10.94
2017-10-09T02:38:22.984Z,11.04
2017-10-09T02:39:23.018Z,10.96
2017-10-09T02:40:23.053Z,11.02
2017-10-09T02:41:23.084Z,11.03
2017-10-09T02:42:23.114Z,11.09
2017-10-09T02:43:23.146Z,11.14
2017-10-09T02:44:23.178Z,11.10
2017-10-09T02:45:23.211Z,11.14
2017-10-09T02:46:23.245Z,11.14
2017-10-09T02:47:23.277Z,11.15
2017-10-09T02:48:23.309Z,11.17
2017-10-09T02:49:23.341Z,11.15
2017-10-09T02:50:23.375Z,11.10
2017-10-09T02:51:23.407Z,11.11
2017-10-09T02:52:23.439Z,11.15
2017-10-09T02:53:23.472Z,11.18
2017-10-09T02:54:23.504Z,11.17
2017-10-09T02:55:23.565Z,11.15
2017-10-09T02:56:23.569Z,11.18
2017-10-09T02:57:23.601Z,11.14
2017-10-09T02:58:23.636Z,11.18
2017-10-09T02:59:23.666Z,11.17
2017-10-09T03:00:23.699Z,11.11
2017-10-09T03:01:23.731Z,11.09
2017-10-09T03:02:23.768Z,11.17
2017-10-09T03:03:23.797Z,11.17
2017-10-09T03:04:23.828Z,11.15
2017-10-09T03:05:23.861Z,11.14
2017-10-09T03:06:23.895Z,11.19
2017-10-09T03:07:23.927Z,11.10
2017-10-09T03:08:23.959Z,11.10
2017-10-09T03:09:23.992Z,11.10
2017-10-09T03:10:24.039Z,11.18
2017-10-09T03:11:24.056Z,11.07
2017-10-09T03:12:24.089Z,11.18
2017-10-09T03:13:24.122Z,11.19
2017-10-09T03:14:24.154Z,11.17
2017-10-09T03:15:24.187Z,11.14
2017-10-09T03:16:24.220Z,11.22
2017-10-09T03:17:24.251Z,11.10
2017-10-09T03:18:24.285Z,11.10
2017-10-09T03:19:24.316Z,11.10
2017-10-09T03:20:24.350Z,11.02
2017-10-09T03:21:24.383Z,11.00
2017-10-09T03:22:24.415Z,11.07
2017-10-09T03:23:24.447Z,11.02
2017-10-09T03:24:24.480Z,10.96
2017-10-09T03:25:24.513Z,10.99
2017-10-09T03:26:24.547Z,10.92
2017-10-09T03:27:24.577Z,11.02
2017-10-09T03:28:24.611Z,11.06
2017-10-09T03:29:24.643Z,10.97
2017-10-09T03:30:24.680Z,11.09
2017-10-09T03:31:24.708Z,11.07
2017-10-09T03:32:24.741Z,11.03
2017-10-09T03:33:24.774Z,11.07
2017-10-09T03:34:24.813Z,11.00
2017-10-09T03:35:24.839Z,11.10
2017-10-09T03:36:24.871Z,11.03
2017-10-09T03:37:24.904Z,11.00
2017-10-09T03:38:24.936Z,11.00
2017-10-09T03:39:24.968Z,11.06
2017-10-09T03:40:25.001Z,11.06
2017-10-09T03:41:25.033Z,11.03
2017-10-09T03:42:25.067Z,11.03
2017-10-09T03:43:25.100Z,10.99
2017-10-09T03:44:25.133Z,11.02
2017-10-09T03:45:25.165Z,11.10
2017-10-09T03:46:25.197Z,11.09
2017-10-09T03:47:25.230Z,11.04
2017-10-09T03:48:25.262Z,11.09
2017-10-09T03:49:25.294Z,11.14
2017-10-09T03:50:25.325Z,11.07
2017-10-09T03:51:25.359Z,11.10
2017-10-09T03:52:25.392Z,11.15
2017-10-09T03:53:25.425Z,11.14
2017-10-09T03:54:25.456Z,10.99
2017-10-09T03:55:25.489Z,11.00
2017-10-09T03:56:25.522Z,11.02
2017-10-09T03:57:25.556Z,10.91
2017-10-09T03:58:25.588Z,10.85
2017-10-09T03:59:25.620Z,10.81
2017-10-09T04:00:25.653Z,10.85
2017-10-09T04:01:25.686Z,10.88
2017-10-09T04:02:25.718Z,10.74
2017-10-09T04:03:25.749Z,10.74
2017-10-09T04:04:25.783Z,10.76
2017-10-09T04:05:25.817Z,10.73
2017-10-09T04:06:25.849Z,10.76
2017-10-09T04:07:25.880Z,10.79
2017-10-09T04:08:25.913Z,10.74
2017-10-09T04:09:25.946Z,10.78
2017-10-09T04:10:25.978Z,10.81
2017-10-09T04:11:26.011Z,10.86
2017-10-09T04:12:26.044Z,10.84
2017-10-09T04:13:26.076Z,10.86
2017-10-09T04:14:26.109Z,10.81
2017-10-09T04:15:26.141Z,10.86
2017-10-09T04:16:26.174Z,10.85
2017-10-09T04:17:26.207Z,10.84
2017-10-09T04:18:26.240Z,10.84
2017-10-09T04:19:26.272Z,10.84
2017-10-09T04:20:26.305Z,10.86
2017-10-09T04:21:26.338Z,10.92
2017-10-09T04:22:26.370Z,10.91
2017-10-09T04:23:26.402Z,10.92
2017-10-09T04:24:26.434Z,10.94
2017-10-09T04:25:26.470Z,11.02
2017-10-09T04:26:26.501Z,11.04
2017-10-09T04:27:26.532Z,11.17
2017-10-09T04:28:26.565Z,11.17
2017-10-09T04:29:26.599Z,11.03
2017-10-09T04:30:26.632Z,11.04
2017-10-09T04:31:26.669Z,11.06
2017-10-09T04:32:26.697Z,11.04
2017-10-09T04:33:26.729Z,11.00
2017-10-09T04:34:26.762Z,10.99
2017-10-09T04:35:26.794Z,10.97
2017-10-09T04:36:26.827Z,10.94
2017-10-09T04:37:26.859Z,11.04
2017-10-09T04:38:26.892Z,11.07
2017-10-09T04:39:26.924Z,11.04
2017-10-09T04:40:26.961Z,11.06
2017-10-09T04:41:26.990Z,11.17
2017-10-09T04:42:27.026Z,11.07
2017-10-09T04:43:27.055Z,11.07
2017-10-09T04:44:27.088Z,11.11
2017-10-09T04:45:27.125Z,11.11
2017-10-09T04:46:27.154Z,11.18
2017-10-09T04:47:27.185Z,11.11
2017-10-09T04:48:27.218Z,11.11
2017-10-09T04:49:27.252Z,11.09
2017-10-09T04:50:27.284Z,11.04
2017-10-09T04:51:27.316Z,11.09
2017-10-09T04:52:27.349Z,11.07
2017-10-09T04:53:27.382Z,11.02
2017-10-09T04:54:27.416Z,11.02
2017-10-09T04:55:27.446Z,11.00
2017-10-09T04:56:27.480Z,11.04
2017-10-09T04:57:27.513Z,11.14
2017-10-09T04:58:27.545Z,11.04
2017-10-09T04:59:27.578Z,11.11
2017-10-09T05:00:27.611Z,10.99
2017-10-09T05:01:27.643Z,10.99
2017-10-09T05:02:27.676Z,11.14
2017-10-09T05:03:27.709Z,11.09
2017-10-09T05:04:27.741Z,11.15
2017-10-09T05:05:27.774Z,11.15
2017-10-09T05:06:27.807Z,11.18
2017-10-09T05:07:27.839Z,11.19
2017-10-09T05:08:27.873Z,11.17
2017-10-09T05:09:27.906Z,11.14
2017-10-09T05:10:27.943Z,11.17
2017-10-09T05:11:27.969Z,11.11
2017-10-09T05:12:28.004Z,11.21
2017-10-09T05:13:28.036Z,11.09
2017-10-09T05:14:28.068Z,11.17
2017-10-09T05:15:28.102Z,11.17
2017-10-09T05:16:28.134Z,11.09
2017-10-09T05:17:28.171Z,11.09
2017-10-09T05:18:28.200Z,11.11
2017-10-09T05:19:28.233Z,11.24
2017-10-09T05:20:28.265Z,11.14
2017-10-09T05:21:28.300Z,11.15
2017-10-09T05:22:28.332Z,11.18
2017-10-09T05:23:28.365Z,11.09
2017-10-09T05:24:28.398Z,11.21
2017-10-09T05:25:28.429Z,11.19
2017-10-09T05:26:28.464Z,11.10
2017-10-09T05:27:28.494Z,11.11
2017-10-09T05:28:28.528Z,11.19
2017-10-09T05:29:28.561Z,11.17
2017-10-09T05:30:28.594Z,11.06
2017-10-09T05:31:28.626Z,11.24
2017-10-09T05:32:28.659Z,11.21
2017-10-09T05:33:28.693Z,11.28
2017-10-09T05:34:28.727Z,11.21
2017-10-09T05:35:28.756Z,11.24
2017-10-09T05:36:28.790Z,11.32
2017-10-09T05:37:28.821Z,11.35
2017-10-09T05:38:28.856Z,11.29
2017-10-09T05:39:28.888Z,11.29
2017-10-09T05:40:28.922Z,11.32
2017-10-09T05:41:28.955Z,11.32
2017-10-09T05:42:28.987Z,11.36
2017-10-09T05:43:29.022Z,11.40
2017-10-09T05:44:29.053Z,11.40
2017-10-09T05:45:29.085Z,11.36
2017-10-09T05:46:29.118Z,11.44
2017-10-09T05:47:29.151Z,11.39
2017-10-09T05:48:29.183Z,11.47
2017-10-09T05:49:29.216Z,11.46
2017-10-09T05:50:29.250Z,11.46
2017-10-09T05:51:29.281Z,11.46
2017-10-09T05:52:29.315Z,11.51
2017-10-09T05:53:29.367Z,11.51
2017-10-09T05:54:29.383Z,11.51
2017-10-09T05:55:29.412Z,11.54
2017-10-09T05:56:29.446Z,11.51
2017-10-09T05:57:29.479Z,11.51
2017-10-09T05:58:29.511Z,11.58
2017-10-09T05:59:29.544Z,11.57
2017-10-09T06:00:29.577Z,11.52
2017-10-09T06:01:29.609Z,11.49
2017-10-09T06:02:29.642Z,11.54
2017-10-09T06:03:29.678Z,11.55
2017-10-09T06:04:29.708Z,11.51
2017-10-09T06:05:29.741Z,11.60
2017-10-09T06:06:29.774Z,11.44
2017-10-09T06:07:29.806Z,11.57
2017-10-09T06:08:29.840Z,11.65
2017-10-09T06:09:29.874Z,11.57
2017-10-09T06:10:29.906Z,11.60
2017-10-09T06:11:29.939Z,11.70
2017-10-09T06:12:29.971Z,11.62
2017-10-09T06:13:30.005Z,11.65
2017-10-09T06:14:30.039Z,11.65
2017-10-09T06:15:30.072Z,11.67
2017-10-09T06:16:30.103Z,11.75
2017-10-09T06:17:30.137Z,11.83
2017-10-09T06:18:30.170Z,11.80
2017-10-09T06:19:30.202Z,11.73
2017-10-09T06:20:30.235Z,11.76
2017-10-09T06:21:30.268Z,11.76
2017-10-09T06:22:30.307Z,11.73
2017-10-09T06:23:30.334Z,11.79
2017-10-09T06:24:30.368Z,11.78
2017-10-09T06:25:30.402Z,11.75
2017-10-09T06:26:30.434Z,11.78
2017-10-09T06:27:30.466Z,11.76
2017-10-09T06:28:30.501Z,11.76
2017-10-09T06:29:30.534Z,11.83
2017-10-09T06:30:30.567Z,11.75
2017-10-09T06:31:30.601Z,11.78
2017-10-09T06:32:30.634Z,11.78
2017-10-09T06:33:30.666Z,11.76
2017-10-09T06:34:30.700Z,11.78
2017-10-09T06:35:30.733Z,11.82
2017-10-09T06:36:30.767Z,11.75
2017-10-09T06:37:30.800Z,11.78
2017-10-09T06:38:30.833Z,11.83
2017-10-09T06:39:30.872Z,11.83
2017-10-09T06:40:30.899Z,11.86
2017-10-09T06:41:30.934Z,11.90
2017-10-09T06:42:30.968Z,11.90
2017-10-09T06:43:30.999Z,11.76
2017-10-09T06:44:31.033Z,11.76
2017-10-09T06:45:31.068Z,11.86
2017-10-09T06:46:31.101Z,11.73
2017-10-09T06:47:31.133Z,11.94
2017-10-09T06:48:31.167Z,11.82
2017-10-09T06:49:31.201Z,11.80
2017-10-09T06:50:31.234Z,11.75
2017-10-09T06:51:31.268Z,11.75
2017-10-09T06:52:31.301Z,11.79
2017-10-09T06:53:31.344Z,11.80
2017-10-09T06:54:31.367Z,11.79
2017-10-09T06:55:31.402Z,11.96
2017-10-09T06:56:31.435Z,11.99
2017-10-09T06:57:31.468Z,12.05
2017-10-09T06:58:31.503Z,11.98
2017-10-09T06:59:31.535Z,12.10
2017-10-09T07:00:31.569Z,12.09
2017-10-09T07:01:31.603Z,12.13
2017-10-09T07:02:31.636Z,12.14
2017-10-09T07:03:31.671Z,12.14
2017-10-09T07:04:31.703Z,12.19
2017-10-09T07:05:31.739Z,12.19
2017-10-09T07:06:31.772Z,12.21
2017-10-09T07:07:31.804Z,12.24
2017-10-09T07:08:31.838Z,12.21
2017-10-09T07:09:31.873Z,12.20
2017-10-09T07:10:31.905Z,12.20
2017-10-09T07:11:31.939Z,12.24
2017-10-09T07:12:31.973Z,12.27
2017-10-09T07:13:32.008Z,12.34
2017-10-09T07:14:32.042Z,12.35
2017-10-09T07:15:32.075Z,12.37
2017-10-09T07:16:32.109Z,12.50
2017-10-09T07:17:32.145Z,12.53
2017-10-09T07:18:32.177Z,12.49
2017-10-09T07:19:32.210Z,12.54
2017-10-09T07:20:32.244Z,12.59
2017-10-09T07:21:32.279Z,12.68
2017-10-09T07:22:32.312Z,12.72
2017-10-09T07:23:32.346Z,12.71
2017-10-09T07:24:32.380Z,12.71
2017-10-09T07:25:32.414Z,12.72
2017-10-09T07:26:32.448Z,12.72
2017-10-09T07:27:32.484Z,12.79
2017-10-09T07:28:32.516Z,12.79
2017-10-09T07:29:32.552Z,12.83
2017-10-09T07:30:32.590Z,12.78
2017-10-09T07:31:32.619Z,12.82
2017-10-09T07:32:32.654Z,12.79
2017-10-09T07:33:32.689Z,12.79
2017-10-09T07:34:32.722Z,12.87
2017-10-09T07:35:32.756Z,12.82
2017-10-09T07:36:32.790Z,12.87
2017-10-09T07:37:32.826Z,12.95
2017-10-09T07:38:32.860Z,12.93
2017-10-09T07:39:32.893Z,12.95
2017-10-09T07:40:32.929Z,13.04
2017-10-09T07:41:32.962Z,13.07
2017-10-09T07:42:32.997Z,12.90
2017-10-09T07:43:33.030Z,12.93
2017-10-09T07:44:33.066Z,12.97
2017-10-09T07:45:33.100Z,12.93
2017-10-09T07:46:33.136Z,12.95
2017-10-09T07:47:33.169Z,13.05
2017-10-09T07:48:33.204Z,13.10
2017-10-09T07:49:33.240Z,13.19
2017-10-09T07:50:33.275Z,13.22
2017-10-09T07:51:33.308Z,13.30
2017-10-09T07:52:33.342Z,13.30
2017-10-09T07:53:33.380Z,13.25
2017-10-09T07:54:33.414Z,13.28
2017-10-09T07:55:33.448Z,13.36
2017-10-09T07:56:33.483Z,13.38
2017-10-09T07:57:33.519Z,13.44
2017-10-09T07:58:33.553Z,13.55
2017-10-09T07:59:33.588Z,13.64
2017-10-09T08:00:33.623Z,13.71
2017-10-09T08:01:33.658Z,13.85
2017-10-09T08:02:33.695Z,13.96
2017-10-09T08:03:33.728Z,14.00
2017-10-09T08:04:33.764Z,13.91
2017-10-09T08:05:33.799Z,13.99
2017-10-09T08:06:33.836Z,14.02
2017-10-09T08:07:33.870Z,14.06
2017-10-09T08:08:33.906Z,14.04
2017-10-09T08:09:33.940Z,13.95
2017-10-09T08:10:33.979Z,13.99
2017-10-09T08:11:34.013Z,13.92
2017-10-09T08:12:34.049Z,13.95
2017-10-09T08:13:34.083Z,14.15
2017-10-09T08:14:34.119Z,14.17
2017-10-09T08:15:34.153Z,14.28
2017-10-09T08:16:34.189Z,14.46
2017-10-09T08:17:34.226Z,14.43
2017-10-09T08:18:34.262Z,14.45
2017-10-09T08:19:34.296Z,14.51
2017-10-09T08:20:34.332Z,14.50
2017-10-09T08:21:34.366Z,14.40
2017-10-09T08:22:34.403Z,14.51
2017-10-09T08:23:34.437Z,14.60
2017-10-09T08:24:34.472Z,14.57
2017-10-09T08:25:34.509Z,14.62
2017-10-09T08:26:34.545Z,14.57
2017-10-09T08:27:34.581Z,14.69
2017-10-09T08:28:34.615Z,14.73
2017-10-09T08:29:34.652Z,14.73
2017-10-09T08:30:34.688Z,14.73
2017-10-09T08:31:34.722Z,14.86
2017-10-09T08:32:34.758Z,15.14
2017-10-09T08:33:34.794Z,15.21
2017-10-09T08:34:34.831Z,15.49
2017-10-09T08:35:34.866Z,15.90
2017-10-09T08:36:34.902Z,16.67
2017-10-09T08:37:34.939Z,16.98
2017-10-09T08:38:34.976Z,17.58
2017-10-09T08:39:35.011Z,18.36
2017-10-09T08:40:35.049Z,19.58
2017-10-09T08:41:35.085Z,20.73
2017-10-09T08:42:35.122Z,21.25
2017-10-09T08:43:35.159Z,22.40
2017-10-09T08:44:35.199Z,23.39
2017-10-09T08:45:35.236Z,24.00
2017-10-09T08:46:35.276Z,24.10
2017-10-09T08:47:35.310Z,23.87
2017-10-09T08:48:35.351Z,22.65
2017-10-09T08:49:35.390Z,21.96
2017-10-09T08:50:35.429Z,23.46
2017-10-09T08:51:35.469Z,24.42
2017-10-09T08:52:35.510Z,25.13
2017-10-09T08:53:35.549Z,25.39
2017-10-09T08:54:35.591Z,25.58
2017-10-09T08:55:35.630Z,25.00
2017-10-09T08:56:35.672Z,23.68
2017-10-09T08:57:35.713Z,22.88
2017-10-09T08:58:35.755Z,23.72
2017-10-09T08:59:35.797Z,24.87
2017-10-09T09:00:35.838Z,25.38
2017-10-09T09:01:35.881Z,25.47
2017-10-09T09:02:35.922Z,25.45
2017-10-09T09:03:35.965Z,24.90
2017-10-09T09:04:36.007Z,25.21
2017-10-09T09:05:36.050Z,25.05
2017-10-09T09:06:36.093Z,24.18
2017-10-09T09:07:36.135Z,24.65
2017-10-09T09:08:36.178Z,25.73
2017-10-09T09:09:36.223Z,27.79
2017-10-09T09:10:36.266Z,28.98
2017-10-09T09:11:36.308Z,28.88
2017-10-09T09:12:36.354Z,28.03
2017-10-09T09:13:36.398Z,27.47
2017-10-09T09:14:36.443Z,26.60
2017-10-09T09:15:36.487Z,27.02
2017-10-09T09:16:36.532Z,27.21
2017-10-09T09:17:36.576Z,27.28
2017-10-09T09:18:36.621Z,25.60
2017-10-09T09:19:36.666Z,23.98
2017-10-09T09:20:36.712Z,23.16
2017-10-09T09:21:36.758Z,22.30
2017-10-09T09:22:36.804Z,21.77
2017-10-09T09:23:36.847Z,20.94
2017-10-09T09:24:36.895Z,20.26
2017-10-09T09:25:36.937Z,19.61
2017-10-09T09:26:36.982Z,19.21
2017-10-09T09:27:37.035Z,18.84
2017-10-09T09:28:37.070Z,18.50
2017-10-09T09:29:37.115Z,18.29
2017-10-09T09:30:37.157Z,18.08
2017-10-09T09:31:37.199Z,17.93
2017-10-09T09:32:37.244Z,17.89
2017-10-09T09:33:37.286Z,17.74
2017-10-09T09:34:37.329Z,17.56
2017-10-09T09:35:37.370Z,17.55
2017-10-09T09:36:37.413Z,17.26
2017-10-09T09:37:37.455Z,17.15
2017-10-09T09:38:37.498Z,16.94
2017-10-09T09:39:37.538Z,16.85
2017-10-09T09:40:37.579Z,16.68
2017-10-09T09:41:37.620Z,16.79
2017-10-09T09:42:37.665Z,16.57
2017-10-09T09:43:37.702Z,16.60
2017-10-09T09:44:37.741Z,16.43
2017-10-09T09:45:37.783Z,16.46
2017-10-09T09:46:37.825Z,16.41
2017-10-09T09:47:37.863Z,16.43
2017-10-09T09:48:37.904Z,16.25
2017-10-09T09:49:37.944Z,16.35
2017-10-09T09:50:37.983Z,16.45
2017-10-09T09:51:38.022Z,16.38
2017-10-09T09:52:38.062Z,16.28
2017-10-09T09:53:38.103Z,16.30
2017-10-09T09:54:38.141Z,16.33
2017-10-09T09:55:38.181Z,16.28
2017-10-09T09:56:38.219Z,16.21
2017-10-09T09:57:38.259Z,16.15
2017-10-09T09:58:38.297Z,16.28
2017-10-09T09:59:38.336Z,16.20
2017-10-09T10:00:38.375Z,16.15
2017-10-09T10:01:38.414Z,16.15
2017-10-09T10:02:38.453Z,16.14
2017-10-09T10:03:38.491Z,16.15
2017-10-09T10:04:38.531Z,16.12
2017-10-09T10:05:38.569Z,16.24
2017-10-09T10:06:38.607Z,16.34
2017-10-09T10:07:38.644Z,16.30
2017-10-09T10:08:38.683Z,16.34
2017-10-09T10:09:38.722Z,16.41
2017-10-09T10:10:38.759Z,16.38
2017-10-09T10:11:38.798Z,16.42
2017-10-09T10:12:38.837Z,16.49
2017-10-09T10:13:38.875Z,16.48
2017-10-09T10:14:38.913Z,16.67
2017-10-09T10:15:38.951Z,16.79
2017-10-09T10:16:38.989Z,16.93
2017-10-09T10:17:39.028Z,16.94
2017-10-09T10:18:39.066Z,17.01
2017-10-09T10:19:39.103Z,17.12
2017-10-09T10:20:39.141Z,17.28
2017-10-09T10:21:39.180Z,17.21
2017-10-09T10:22:39.219Z,17.23
2017-10-09T10:23:39.256Z,17.18
2017-10-09T10:24:39.295Z,17.23
2017-10-09T10:25:39.334Z,17.30
2017-10-09T10:26:39.372Z,17.54
2017-10-09T10:27:39.410Z,17.87
2017-10-09T10:28:39.451Z,18.03
2017-10-09T10:29:39.487Z,18.30
2017-10-09T10:30:39.526Z,18.35
2017-10-09T10:31:39.564Z,18.45
2017-10-09T10:32:39.603Z,18.60
2017-10-09T10:33:39.643Z,18.75
2017-10-09T10:34:39.681Z,18.76
2017-10-09T10:35:39.720Z,18.52
2017-10-09T10:36:39.760Z,18.26
2017-10-09T10:37:39.799Z,18.12
2017-10-09T10:38:39.838Z,18.07
2017-10-09T10:39:39.878Z,18.08
2017-10-09T10:40:39.918Z,18.20
2017-10-09T10:41:39.956Z,18.21
2017-10-09T10:42:39.997Z,17.96
2017-10-09T10:43:40.036Z,17.81
2017-10-09T10:44:40.075Z,17.79
2017-10-09T10:45:40.116Z,17.70
2017-10-09T10:46:40.156Z,17.77
2017-10-09T10:47:40.193Z,17.92
2017-10-09T10:48:40.234Z,18.07
2017-10-09T10:49:40.273Z,18.27
2017-10-09T10:50:40.314Z,18.58
2017-10-09T10:51:40.352Z,18.76
2017-10-09T10:52:40.393Z,19.04
2017-10-09T10:53:40.433Z,19.16
2017-10-09T10:54:40.473Z,19.04
2017-10-09T10:55:40.511Z,19.23
2017-10-09T10:56:40.552Z,19.43
2017-10-09T10:57:40.594Z,19.68
2017-10-09T10:58:40.633Z,19.73
2017-10-09T10:59:40.673Z,19.77
2017-10-09T11:00:40.713Z,19.78
2017-10-09T11:01:40.753Z,19.74
2017-10-09T11:02:40.796Z,19.59
2017-10-09T11:03:40.835Z,19.62
2017-10-09T11:04:40.875Z,19.33
2017-10-09T11:05:40.917Z,19.19
2017-10-09T11:06:40.958Z,19.13
2017-10-09T11:07:40.997Z,19.00
2017-10-09T11:08:41.038Z,19.06
2017-10-09T11:09:41.077Z,19.00
2017-10-09T11:10:41.121Z,18.91
2017-10-09T11:11:41.160Z,18.76
2017-10-09T11:12:41.202Z,18.63
2017-10-09T11:13:41.243Z,18.63
2017-10-09T11:14:41.284Z,18.73
2017-10-09T11:15:41.325Z,18.88
2017-10-09T11:16:41.364Z,19.00
2017-10-09T11:17:41.405Z,18.92
2017-10-09T11:18:41.449Z,18.94
2017-10-09T11:19:41.486Z,19.07
2017-10-09T11:20:41.528Z,19.23
2017-10-09T11:21:41.569Z,19.14
2017-10-09T11:22:41.610Z,19.14
2017-10-09T11:23:41.651Z,19.04
2017-10-09T11:24:41.692Z,19.16
2017-10-09T11:25:41.732Z,19.25
2017-10-09T11:26:41.793Z,19.37
2017-10-09T11:27:41.812Z,19.06
2017-10-09T11:28:41.855Z,18.99
2017-10-09T11:29:41.896Z,19.07
2017-10-09T11:30:41.935Z,19.16
2017-10-09T11:31:41.976Z,19.13
2017-10-09T11:32:42.017Z,19.06
2017-10-09T11:33:42.058Z,19.14
2017-10-09T11:34:42.105Z,19.26
2017-10-09T11:35:42.140Z,19.40
2017-10-09T11:36:42.180Z,19.55
2017-10-09T11:37:42.221Z,19.26
2017-10-09T11:38:42.260Z,19.08
2017-10-09T11:39:42.305Z,18.90
2017-10-09T11:40:42.343Z,18.85
2017-10-09T11:41:42.384Z,18.75
2017-10-09T11:42:42.425Z,18.76
2017-10-09T11:43:42.465Z,18.91
2017-10-09T11:44:42.505Z,18.98
2017-10-09T11:45:42.546Z,19.02
2017-10-09T11:46:42.587Z,19.06
2017-10-09T11:47:42.627Z,19.00
2017-10-09T11:48:42.669Z,18.62
2017-10-09T11:49:42.710Z,18.44
2017-10-09T11:50:42.755Z,18.18
2017-10-09T11:51:42.793Z,18.33
2017-10-09T11:52:42.832Z,18.39
2017-10-09T11:53:42.873Z,18.52
2017-10-09T11:54:42.914Z,19.36
2017-10-09T11:55:42.955Z,22.60
2017-10-09T11:56:42.996Z,22.02
2017-10-09T11:57:43.040Z,21.80
2017-10-09T11:58:43.080Z,21.82
2017-10-09T11:59:43.120Z,21.77
2017-10-09T12:00:43.165Z,21.98
2017-10-09T12:01:43.206Z,21.82
2017-10-09T12:02:43.249Z,21.58
2017-10-09T12:03:43.289Z,21.53
2017-10-09T12:04:43.334Z,21.86
2017-10-09T12:05:43.374Z,22.37
2017-10-09T12:06:43.418Z,21.99
2017-10-09T12:07:43.459Z,21.38
2017-10-09T12:08:43.503Z,19.81
2017-10-09T12:09:43.545Z,19.16
2017-10-09T12:10:43.590Z,18.88
2017-10-09T12:11:43.632Z,18.73
2017-10-09T12:12:43.673Z,18.57
2017-10-09T12:13:43.717Z,18.45
2017-10-09T12:14:43.759Z,18.21
2017-10-09T12:15:43.800Z,18.02
2017-10-09T12:16:43.845Z,17.96
2017-10-09T12:17:43.886Z,18.07
2017-10-09T12:18:43.928Z,18.00
2017-10-09T12:19:43.970Z,17.97
2017-10-09T12:20:44.011Z,17.93
2017-10-09T12:21:44.053Z,17.87
2017-10-09T12:22:44.095Z,17.97
2017-10-09T12:23:44.134Z,17.82
2017-10-09T12:24:44.174Z,17.72
2017-10-09T12:25:44.217Z,17.72
2017-10-09T12:26:44.259Z,17.75
2017-10-09T12:27:44.298Z,17.64
2017-10-09T12:28:44.339Z,17.71
2017-10-09T12:29:44.381Z,17.84
2017-10-09T12:30:44.423Z,17.96
2017-10-09T12:31:44.462Z,17.95
2017-10-09T12:32:44.503Z,17.97
2017-10-09T12:33:44.543Z,17.79
2017-10-09T12:34:44.582Z,17.68
2017-10-09T12:35:44.622Z,17.66
2017-10-09T12:36:44.662Z,17.70
2017-10-09T12:37:44.702Z,17.72
2017-10-09T12:38:44.744Z,17.75
2017-10-09T12:39:44.783Z,17.70
2017-10-09T12:40:44.824Z,17.72
2017-10-09T12:41:44.862Z,17.56
2017-10-09T12:42:44.904Z,17.49
2017-10-09T12:43:44.942Z,17.59
2017-10-09T12:44:44.984Z,17.55
2017-10-09T12:45:45.022Z,17.54
2017-10-09T12:46:45.061Z,17.62
2017-10-09T12:47:45.103Z,17.58
2017-10-09T12:48:45.141Z,17.59
2017-10-09T12:49:45.179Z,17.56
2017-10-09T12:50:45.220Z,17.63
2017-10-09T12:51:45.264Z,17.64
2017-10-09T12:52:45.305Z,17.64